sensor_id;sensor_type;location;lat;lon;timestamp;temperature;humidity
21039;DHT22;10678;51.002;4.786;2022-08-01T00:01:50;22.80;99.90
21039;DHT22;10678;51.002;4.786;2022-08-01T00:04:15;22.60;99.90
21039;DHT22;10678;51.002;4.786;2022-08-01T00:06:41;22.60;99.90
21039;DHT22;10678;51.002;4.786;2022-08-01T00:09:07;22.60;99.90
21039;DHT22;10678;51.002;4.786;2022-08-01T00:11:32;22.60;99.90
21039;DHT22;10678;51.002;4.786;2022-08-01T00:13:58;22.70;99.90
21039;DHT22;10678;51.002;4.786;2022-08-01T00:16:23;22.70;99.90
21039;DHT22;10678;51.002;4.786;2022-08-01T00:18:50;22.60;99.90
21039;DHT22;10678;51.002;4.786;2022-08-01T00:21:16;22.60;99.90
21039;DHT22;10678;51.002;4.786;2022-08-01T00:23:42;22.60;99.90
21039;DHT22;10678;51.002;4.786;2022-08-01T00:26:08;22.60;99.90
21039;DHT22;10678;51.002;4.786;2022-08-01T00:28:34;22.50;99.90
21039;DHT22;10678;51.002;4.786;2022-08-01T00:31:00;22.50;99.90
21039;DHT22;10678;51.002;4.786;2022-08-01T00:33:25;22.50;99.90
21039;DHT22;10678;51.002;4.786;2022-08-01T00:35:51;22.50;99.90
21039;DHT22;10678;51.002;4.786;2022-08-01T00:38:17;22.60;99.90
21039;DHT22;10678;51.002;4.786;2022-08-01T00:40:42;22.60;99.90
21039;DHT22;10678;51.002;4.786;2022-08-01T00:43:09;22.70;99.90
21039;DHT22;10678;51.002;4.786;2022-08-01T00:45:34;22.60;99.90
21039;DHT22;10678;51.002;4.786;2022-08-01T00:48:00;22.60;99.90
21039;DHT22;10678;51.002;4.786;2022-08-01T00:50:25;22.40;99.90
21039;DHT22;10678;51.002;4.786;2022-08-01T00:52:51;22.40;99.90
21039;DHT22;10678;51.002;4.786;2022-08-01T00:55:18;22.30;99.90
21039;DHT22;10678;51.002;4.786;2022-08-01T00:57:44;22.20;99.90
21039;DHT22;10678;51.002;4.786;2022-08-01T01:00:10;22.20;99.90
21039;DHT22;10678;51.002;4.786;2022-08-01T01:02:36;22.20;99.90
21039;DHT22;10678;51.002;4.786;2022-08-01T01:05:02;22.20;99.90
21039;DHT22;10678;51.002;4.786;2022-08-01T01:07:44;22.20;99.90
21039;DHT22;10678;51.002;4.786;2022-08-01T01:13:58;22.20;99.90
21039;DHT22;10678;51.002;4.786;2022-08-01T01:16:15;22.30;99.90
21039;DHT22;10678;51.002;4.786;2022-08-01T01:18:57;22.30;99.90
21039;DHT22;10678;51.002;4.786;2022-08-01T01:21:33;22.40;99.90
21039;DHT22;10678;51.002;4.786;2022-08-01T01:24:17;22.30;99.90
21039;DHT22;10678;51.002;4.786;2022-08-01T01:26:57;22.30;99.90
21039;DHT22;10678;51.002;4.786;2022-08-01T01:29:40;22.30;99.90
21039;DHT22;10678;51.002;4.786;2022-08-01T01:35:07;22.20;99.90
21039;DHT22;10678;51.002;4.786;2022-08-01T01:37:35;22.20;99.90
21039;DHT22;10678;51.002;4.786;2022-08-01T01:40:03;22.20;99.90
21039;DHT22;10678;51.002;4.786;2022-08-01T01:42:32;22.30;99.90
21039;DHT22;10678;51.002;4.786;2022-08-01T01:45:00;22.30;99.90
21039;DHT22;10678;51.002;4.786;2022-08-01T01:47:29;22.40;99.90
21039;DHT22;10678;51.002;4.786;2022-08-01T01:49:57;22.40;99.90
21039;DHT22;10678;51.002;4.786;2022-08-01T01:52:24;22.50;99.90
21039;DHT22;10678;51.002;4.786;2022-08-01T01:54:52;22.50;99.90
21039;DHT22;10678;51.002;4.786;2022-08-01T01:57:20;22.30;99.90
21039;DHT22;10678;51.002;4.786;2022-08-01T01:59:46;22.40;99.90
21039;DHT22;10678;51.002;4.786;2022-08-01T02:02:14;22.40;99.90
21039;DHT22;10678;51.002;4.786;2022-08-01T02:04:42;22.40;99.90
21039;DHT22;10678;51.002;4.786;2022-08-01T02:07:11;22.30;99.90
21039;DHT22;10678;51.002;4.786;2022-08-01T02:09:37;22.20;99.90
21039;DHT22;10678;51.002;4.786;2022-08-01T02:12:05;22.30;99.90
21039;DHT22;10678;51.002;4.786;2022-08-01T02:14:34;22.40;99.90
21039;DHT22;10678;51.002;4.786;2022-08-01T02:17:05;22.40;99.90
21039;DHT22;10678;51.002;4.786;2022-08-01T02:19:32;22.40;99.90
21039;DHT22;10678;51.002;4.786;2022-08-01T02:22:05;22.40;99.90
21039;DHT22;10678;51.002;4.786;2022-08-01T02:24:42;22.40;99.90
21039;DHT22;10678;51.002;4.786;2022-08-01T02:27:14;22.40;99.90
21039;DHT22;10678;51.002;4.786;2022-08-01T02:29:43;22.50;99.90
21039;DHT22;10678;51.002;4.786;2022-08-01T02:32:27;22.40;99.90
21039;DHT22;10678;51.002;4.786;2022-08-01T02:34:57;22.50;99.90
21039;DHT22;10678;51.002;4.786;2022-08-01T02:37:26;22.40;99.90
21039;DHT22;10678;51.002;4.786;2022-08-01T02:39:54;22.40;99.90
21039;DHT22;10678;51.002;4.786;2022-08-01T02:42:20;22.40;99.90
21039;DHT22;10678;51.002;4.786;2022-08-01T02:44:48;22.50;99.90
21039;DHT22;10678;51.002;4.786;2022-08-01T02:47:15;22.40;99.90
21039;DHT22;10678;51.002;4.786;2022-08-01T02:49:45;22.40;99.90
21039;DHT22;10678;51.002;4.786;2022-08-01T02:52:13;22.30;99.90
21039;DHT22;10678;51.002;4.786;2022-08-01T02:54:41;22.20;99.90
21039;DHT22;10678;51.002;4.786;2022-08-01T02:57:08;22.30;99.90
21039;DHT22;10678;51.002;4.786;2022-08-01T02:59:37;22.30;99.90
21039;DHT22;10678;51.002;4.786;2022-08-01T03:02:04;22.30;99.90
21039;DHT22;10678;51.002;4.786;2022-08-01T03:04:32;22.40;99.90
21039;DHT22;10678;51.002;4.786;2022-08-01T03:07:02;22.30;99.90
21039;DHT22;10678;51.002;4.786;2022-08-01T03:09:29;22.40;99.90
21039;DHT22;10678;51.002;4.786;2022-08-01T03:11:58;22.40;99.90
21039;DHT22;10678;51.002;4.786;2022-08-01T03:14:25;22.30;99.90
21039;DHT22;10678;51.002;4.786;2022-08-01T03:16:52;22.30;99.90
21039;DHT22;10678;51.002;4.786;2022-08-01T03:19:20;22.30;99.90
21039;DHT22;10678;51.002;4.786;2022-08-01T03:21:48;22.20;99.90
21039;DHT22;10678;51.002;4.786;2022-08-01T03:24:16;22.20;99.90
21039;DHT22;10678;51.002;4.786;2022-08-01T03:26:44;22.20;99.90
21039;DHT22;10678;51.002;4.786;2022-08-01T03:29:16;22.20;99.90
21039;DHT22;10678;51.002;4.786;2022-08-01T03:31:43;22.20;99.90
21039;DHT22;10678;51.002;4.786;2022-08-01T03:34:10;22.20;99.90
21039;DHT22;10678;51.002;4.786;2022-08-01T03:36:46;22.20;99.90
21039;DHT22;10678;51.002;4.786;2022-08-01T03:39:13;22.10;99.90
21039;DHT22;10678;51.002;4.786;2022-08-01T03:41:43;22.20;99.90
21039;DHT22;10678;51.002;4.786;2022-08-01T03:44:14;22.20;99.90
21039;DHT22;10678;51.002;4.786;2022-08-01T03:46:45;22.20;99.90
21039;DHT22;10678;51.002;4.786;2022-08-01T03:49:18;22.10;99.90
21039;DHT22;10678;51.002;4.786;2022-08-01T03:51:47;22.10;99.90
21039;DHT22;10678;51.002;4.786;2022-08-01T03:54:17;22.10;99.90
21039;DHT22;10678;51.002;4.786;2022-08-01T03:56:47;22.20;99.90
21039;DHT22;10678;51.002;4.786;2022-08-01T03:59:15;22.20;99.90
21039;DHT22;10678;51.002;4.786;2022-08-01T04:01:43;22.10;99.90
21039;DHT22;10678;51.002;4.786;2022-08-01T04:04:08;22.00;99.90
21039;DHT22;10678;51.002;4.786;2022-08-01T04:06:37;22.10;99.90
21039;DHT22;10678;51.002;4.786;2022-08-01T04:09:03;22.10;99.90
21039;DHT22;10678;51.002;4.786;2022-08-01T04:11:29;22.00;99.90
21039;DHT22;10678;51.002;4.786;2022-08-01T04:13:56;22.00;99.90
21039;DHT22;10678;51.002;4.786;2022-08-01T04:16:22;22.00;99.90
21039;DHT22;10678;51.002;4.786;2022-08-01T04:18:48;22.00;99.90
21039;DHT22;10678;51.002;4.786;2022-08-01T04:21:14;21.90;99.90
21039;DHT22;10678;51.002;4.786;2022-08-01T04:23:44;22.00;99.90
21039;DHT22;10678;51.002;4.786;2022-08-01T04:26:12;21.90;99.90
21039;DHT22;10678;51.002;4.786;2022-08-01T04:28:39;21.90;99.90
21039;DHT22;10678;51.002;4.786;2022-08-01T04:31:08;21.90;99.90
21039;DHT22;10678;51.002;4.786;2022-08-01T04:33:40;21.90;99.90
21039;DHT22;10678;51.002;4.786;2022-08-01T04:36:10;21.90;99.90
21039;DHT22;10678;51.002;4.786;2022-08-01T04:38:37;22.00;99.90
21039;DHT22;10678;51.002;4.786;2022-08-01T04:41:06;21.90;99.90
21039;DHT22;10678;51.002;4.786;2022-08-01T04:43:32;22.00;99.90
21039;DHT22;10678;51.002;4.786;2022-08-01T04:45:58;22.00;99.90
21039;DHT22;10678;51.002;4.786;2022-08-01T04:48:29;22.00;99.90
21039;DHT22;10678;51.002;4.786;2022-08-01T04:50:55;22.00;99.90
21039;DHT22;10678;51.002;4.786;2022-08-01T04:53:20;22.00;99.90
21039;DHT22;10678;51.002;4.786;2022-08-01T04:55:48;22.10;99.90
21039;DHT22;10678;51.002;4.786;2022-08-01T04:58:15;22.00;99.90
21039;DHT22;10678;51.002;4.786;2022-08-01T05:00:41;22.00;99.90
21039;DHT22;10678;51.002;4.786;2022-08-01T05:03:06;21.90;99.90
21039;DHT22;10678;51.002;4.786;2022-08-01T05:05:32;21.90;99.90
21039;DHT22;10678;51.002;4.786;2022-08-01T05:07:58;22.00;99.90
21039;DHT22;10678;51.002;4.786;2022-08-01T05:10:23;22.00;99.90
21039;DHT22;10678;51.002;4.786;2022-08-01T05:12:49;22.10;99.90
21039;DHT22;10678;51.002;4.786;2022-08-01T05:15:14;22.00;99.90
21039;DHT22;10678;51.002;4.786;2022-08-01T05:17:41;22.00;99.90
21039;DHT22;10678;51.002;4.786;2022-08-01T05:20:11;21.90;99.90
21039;DHT22;10678;51.002;4.786;2022-08-01T05:22:37;21.90;99.90
21039;DHT22;10678;51.002;4.786;2022-08-01T05:25:03;21.90;99.90
21039;DHT22;10678;51.002;4.786;2022-08-01T05:27:30;21.90;99.90
21039;DHT22;10678;51.002;4.786;2022-08-01T05:29:56;22.00;99.90
21039;DHT22;10678;51.002;4.786;2022-08-01T05:32:22;22.10;99.90
21039;DHT22;10678;51.002;4.786;2022-08-01T05:34:47;22.10;99.90
21039;DHT22;10678;51.002;4.786;2022-08-01T05:37:13;22.20;99.90
21039;DHT22;10678;51.002;4.786;2022-08-01T05:39:39;22.20;99.90
21039;DHT22;10678;51.002;4.786;2022-08-01T05:42:05;22.20;99.90
21039;DHT22;10678;51.002;4.786;2022-08-01T05:44:30;22.20;99.90
21039;DHT22;10678;51.002;4.786;2022-08-01T05:46:56;22.20;99.90
21039;DHT22;10678;51.002;4.786;2022-08-01T05:49:22;22.30;99.90
21039;DHT22;10678;51.002;4.786;2022-08-01T05:51:47;22.30;99.90
21039;DHT22;10678;51.002;4.786;2022-08-01T05:54:13;22.30;99.90
21039;DHT22;10678;51.002;4.786;2022-08-01T05:56:39;22.40;99.90
21039;DHT22;10678;51.002;4.786;2022-08-01T05:59:05;22.60;99.90
21039;DHT22;10678;51.002;4.786;2022-08-01T06:01:30;22.60;99.90
21039;DHT22;10678;51.002;4.786;2022-08-01T06:03:56;22.60;99.90
21039;DHT22;10678;51.002;4.786;2022-08-01T06:06:22;22.70;99.90
21039;DHT22;10678;51.002;4.786;2022-08-01T06:08:47;22.90;99.90
21039;DHT22;10678;51.002;4.786;2022-08-01T06:11:13;22.90;99.90
21039;DHT22;10678;51.002;4.786;2022-08-01T06:13:39;23.00;99.90
21039;DHT22;10678;51.002;4.786;2022-08-01T06:16:04;23.10;99.90
21039;DHT22;10678;51.002;4.786;2022-08-01T06:18:30;23.10;99.90
21039;DHT22;10678;51.002;4.786;2022-08-01T06:20:56;23.10;99.90
21039;DHT22;10678;51.002;4.786;2022-08-01T06:23:22;23.10;99.90
21039;DHT22;10678;51.002;4.786;2022-08-01T06:25:48;23.10;99.90
21039;DHT22;10678;51.002;4.786;2022-08-01T06:28:13;23.10;99.90
21039;DHT22;10678;51.002;4.786;2022-08-01T06:30:39;23.30;99.90
21039;DHT22;10678;51.002;4.786;2022-08-01T06:33:05;23.40;99.90
21039;DHT22;10678;51.002;4.786;2022-08-01T06:35:30;23.40;99.90
21039;DHT22;10678;51.002;4.786;2022-08-01T06:37:57;23.30;99.90
21039;DHT22;10678;51.002;4.786;2022-08-01T06:40:23;23.30;99.90
21039;DHT22;10678;51.002;4.786;2022-08-01T06:42:49;23.30;99.90
21039;DHT22;10678;51.002;4.786;2022-08-01T06:45:15;23.60;99.90
21039;DHT22;10678;51.002;4.786;2022-08-01T06:47:42;23.80;99.90
21039;DHT22;10678;51.002;4.786;2022-08-01T06:50:09;24.10;99.90
21039;DHT22;10678;51.002;4.786;2022-08-01T06:52:35;24.60;99.90
21039;DHT22;10678;51.002;4.786;2022-08-01T06:55:02;24.60;99.90
21039;DHT22;10678;51.002;4.786;2022-08-01T06:57:28;24.80;99.90
21039;DHT22;10678;51.002;4.786;2022-08-01T06:59:54;25.10;99.90
21039;DHT22;10678;51.002;4.786;2022-08-01T07:02:19;25.20;99.90
21039;DHT22;10678;51.002;4.786;2022-08-01T07:04:45;25.60;99.90
21039;DHT22;10678;51.002;4.786;2022-08-01T07:07:11;25.60;99.90
21039;DHT22;10678;51.002;4.786;2022-08-01T07:09:36;25.60;99.90
21039;DHT22;10678;51.002;4.786;2022-08-01T07:12:03;25.60;99.90
21039;DHT22;10678;51.002;4.786;2022-08-01T07:14:29;25.40;99.90
21039;DHT22;10678;51.002;4.786;2022-08-01T07:16:55;25.20;99.90
21039;DHT22;10678;51.002;4.786;2022-08-01T07:19:20;25.20;99.90
21039;DHT22;10678;51.002;4.786;2022-08-01T07:21:46;25.10;99.90
21039;DHT22;10678;51.002;4.786;2022-08-01T07:24:13;25.10;99.90
21039;DHT22;10678;51.002;4.786;2022-08-01T07:26:43;25.00;99.90
21039;DHT22;10678;51.002;4.786;2022-08-01T07:29:09;24.80;99.90
21039;DHT22;10678;51.002;4.786;2022-08-01T07:31:34;24.70;99.90
21039;DHT22;10678;51.002;4.786;2022-08-01T07:34:00;24.70;99.90
21039;DHT22;10678;51.002;4.786;2022-08-01T07:36:26;24.80;99.90
21039;DHT22;10678;51.002;4.786;2022-08-01T07:38:51;25.20;99.90
21039;DHT22;10678;51.002;4.786;2022-08-01T07:41:17;25.40;99.90
21039;DHT22;10678;51.002;4.786;2022-08-01T07:43:43;25.60;99.90
21039;DHT22;10678;51.002;4.786;2022-08-01T07:46:08;25.50;99.90
21039;DHT22;10678;51.002;4.786;2022-08-01T07:48:34;25.20;99.90
21039;DHT22;10678;51.002;4.786;2022-08-01T07:51:00;25.20;99.90
21039;DHT22;10678;51.002;4.786;2022-08-01T07:53:25;25.30;99.90
21039;DHT22;10678;51.002;4.786;2022-08-01T07:55:51;25.20;99.90
21039;DHT22;10678;51.002;4.786;2022-08-01T07:58:17;25.40;99.90
21039;DHT22;10678;51.002;4.786;2022-08-01T08:00:43;25.60;99.90
21039;DHT22;10678;51.002;4.786;2022-08-01T08:03:08;26.00;99.90
21039;DHT22;10678;51.002;4.786;2022-08-01T08:05:34;26.10;99.90
21039;DHT22;10678;51.002;4.786;2022-08-01T08:08:07;26.40;99.90
21039;DHT22;10678;51.002;4.786;2022-08-01T08:10:34;26.80;99.90
21039;DHT22;10678;51.002;4.786;2022-08-01T08:13:00;26.80;99.90
21039;DHT22;10678;51.002;4.786;2022-08-01T08:15:27;27.00;99.90
21039;DHT22;10678;51.002;4.786;2022-08-01T08:17:52;27.10;99.90
21039;DHT22;10678;51.002;4.786;2022-08-01T08:20:18;27.20;99.90
21039;DHT22;10678;51.002;4.786;2022-08-01T08:22:43;27.00;99.90
21039;DHT22;10678;51.002;4.786;2022-08-01T08:25:09;26.60;99.90
21039;DHT22;10678;51.002;4.786;2022-08-01T08:27:36;26.40;99.90
21039;DHT22;10678;51.002;4.786;2022-08-01T08:30:02;27.20;99.90
21039;DHT22;10678;51.002;4.786;2022-08-01T08:32:28;28.20;99.90
21039;DHT22;10678;51.002;4.786;2022-08-01T08:34:54;28.60;99.90
21039;DHT22;10678;51.002;4.786;2022-08-01T08:37:19;28.40;99.90
21039;DHT22;10678;51.002;4.786;2022-08-01T08:39:45;28.40;99.90
21039;DHT22;10678;51.002;4.786;2022-08-01T08:42:11;28.20;99.90
21039;DHT22;10678;51.002;4.786;2022-08-01T08:44:40;28.00;99.90
21039;DHT22;10678;51.002;4.786;2022-08-01T08:47:08;27.50;99.90
21039;DHT22;10678;51.002;4.786;2022-08-01T08:49:36;27.60;99.90
21039;DHT22;10678;51.002;4.786;2022-08-01T08:52:03;28.30;99.90
21039;DHT22;10678;51.002;4.786;2022-08-01T08:54:30;28.50;99.90
21039;DHT22;10678;51.002;4.786;2022-08-01T08:56:58;28.60;99.90
21039;DHT22;10678;51.002;4.786;2022-08-01T08:59:25;28.60;99.90
21039;DHT22;10678;51.002;4.786;2022-08-01T09:01:50;28.10;99.90
21039;DHT22;10678;51.002;4.786;2022-08-01T09:04:16;29.40;99.90
21039;DHT22;10678;51.002;4.786;2022-08-01T09:06:42;31.00;99.90
21039;DHT22;10678;51.002;4.786;2022-08-01T09:09:09;31.90;99.90
21039;DHT22;10678;51.002;4.786;2022-08-01T09:11:36;32.50;99.90
21039;DHT22;10678;51.002;4.786;2022-08-01T09:14:08;33.10;98.90
21039;DHT22;10678;51.002;4.786;2022-08-01T09:16:36;33.90;96.00
21039;DHT22;10678;51.002;4.786;2022-08-01T09:19:20;34.40;95.70
21039;DHT22;10678;51.002;4.786;2022-08-01T09:21:57;34.80;94.40
21039;DHT22;10678;51.002;4.786;2022-08-01T09:24:25;35.10;92.60
21039;DHT22;10678;51.002;4.786;2022-08-01T09:26:51;35.30;91.50
21039;DHT22;10678;51.002;4.786;2022-08-01T09:29:22;34.90;88.60
21039;DHT22;10678;51.002;4.786;2022-08-01T09:31:48;34.00;88.50
21039;DHT22;10678;51.002;4.786;2022-08-01T09:34:15;32.90;89.00
21039;DHT22;10678;51.002;4.786;2022-08-01T09:39:14;31.70;92.90
21039;DHT22;10678;51.002;4.786;2022-08-01T09:41:40;32.40;92.50
21039;DHT22;10678;51.002;4.786;2022-08-01T09:44:06;33.60;89.90
21039;DHT22;10678;51.002;4.786;2022-08-01T09:46:32;34.40;86.50
21039;DHT22;10678;51.002;4.786;2022-08-01T09:49:03;35.10;83.90
21039;DHT22;10678;51.002;4.786;2022-08-01T09:51:34;36.20;83.20
21039;DHT22;10678;51.002;4.786;2022-08-01T09:54:05;36.50;79.10
21039;DHT22;10678;51.002;4.786;2022-08-01T09:59:03;36.20;80.60
21039;DHT22;10678;51.002;4.786;2022-08-01T10:01:42;36.40;80.40
21039;DHT22;10678;51.002;4.786;2022-08-01T10:04:09;36.70;82.50
21039;DHT22;10678;51.002;4.786;2022-08-01T10:06:35;37.80;78.70
21039;DHT22;10678;51.002;4.786;2022-08-01T10:09:02;38.80;74.90
21039;DHT22;10678;51.002;4.786;2022-08-01T10:11:28;38.30;71.50
21039;DHT22;10678;51.002;4.786;2022-08-01T10:13:56;38.10;73.80
21039;DHT22;10678;51.002;4.786;2022-08-01T10:16:25;38.40;71.90
21039;DHT22;10678;51.002;4.786;2022-08-01T10:18:53;39.50;71.60
21039;DHT22;10678;51.002;4.786;2022-08-01T10:21:20;41.30;68.20
21039;DHT22;10678;51.002;4.786;2022-08-01T10:23:46;42.70;61.70
21039;DHT22;10678;51.002;4.786;2022-08-01T10:26:12;42.90;57.70
21039;DHT22;10678;51.002;4.786;2022-08-01T10:28:39;43.50;57.80
21039;DHT22;10678;51.002;4.786;2022-08-01T10:31:07;44.10;56.30
21039;DHT22;10678;51.002;4.786;2022-08-01T10:33:33;43.90;56.20
21039;DHT22;10678;51.002;4.786;2022-08-01T10:36:01;44.30;55.10
21039;DHT22;10678;51.002;4.786;2022-08-01T10:38:28;43.70;54.70
21039;DHT22;10678;51.002;4.786;2022-08-01T10:40:55;45.10;54.30
21039;DHT22;10678;51.002;4.786;2022-08-01T10:43:22;46.00;51.70
21039;DHT22;10678;51.002;4.786;2022-08-01T10:45:49;45.90;51.10
21039;DHT22;10678;51.002;4.786;2022-08-01T10:50:54;43.10;52.40
21039;DHT22;10678;51.002;4.786;2022-08-01T10:53:24;42.20;52.60
21039;DHT22;10678;51.002;4.786;2022-08-01T10:58:25;41.10;55.70
21039;DHT22;10678;51.002;4.786;2022-08-01T11:01:22;40.80;54.70
21039;DHT22;10678;51.002;4.786;2022-08-01T11:14:24;41.70;54.80
21039;DHT22;10678;51.002;4.786;2022-08-01T11:16:50;41.70;53.80
21039;DHT22;10678;51.002;4.786;2022-08-01T11:19:16;42.00;54.00
21039;DHT22;10678;51.002;4.786;2022-08-01T11:27:21;43.00;51.40
21039;DHT22;10678;51.002;4.786;2022-08-01T11:35:12;37.70;58.40
21039;DHT22;10678;51.002;4.786;2022-08-01T11:37:38;36.20;59.90
21039;DHT22;10678;51.002;4.786;2022-08-01T11:40:17;36.90;60.00
21039;DHT22;10678;51.002;4.786;2022-08-01T11:42:44;37.30;59.70
21039;DHT22;10678;51.002;4.786;2022-08-01T11:45:09;38.00;58.60
21039;DHT22;10678;51.002;4.786;2022-08-01T11:47:45;37.40;57.60
21039;DHT22;10678;51.002;4.786;2022-08-01T11:50:31;37.10;58.10
21039;DHT22;10678;51.002;4.786;2022-08-01T11:52:58;36.50;60.60
21039;DHT22;10678;51.002;4.786;2022-08-01T11:55:24;36.20;59.90
21039;DHT22;10678;51.002;4.786;2022-08-01T11:57:59;35.80;60.50
21039;DHT22;10678;51.002;4.786;2022-08-01T12:00:25;35.30;62.00
21039;DHT22;10678;51.002;4.786;2022-08-01T12:03:08;35.50;63.40
21039;DHT22;10678;51.002;4.786;2022-08-01T12:05:35;36.20;64.20
21039;DHT22;10678;51.002;4.786;2022-08-01T12:08:03;36.80;58.80
21039;DHT22;10678;51.002;4.786;2022-08-01T12:10:32;38.00;60.30
21039;DHT22;10678;51.002;4.786;2022-08-01T12:13:04;39.00;58.40
21039;DHT22;10678;51.002;4.786;2022-08-01T12:15:32;40.20;57.60
21039;DHT22;10678;51.002;4.786;2022-08-01T12:18:00;40.80;54.70
21039;DHT22;10678;51.002;4.786;2022-08-01T12:20:29;41.00;55.20
21039;DHT22;10678;51.002;4.786;2022-08-01T12:22:56;41.20;54.40
21039;DHT22;10678;51.002;4.786;2022-08-01T12:25:23;40.60;53.00
21039;DHT22;10678;51.002;4.786;2022-08-01T12:27:49;41.00;52.80
21039;DHT22;10678;51.002;4.786;2022-08-01T12:30:17;40.70;52.80
21039;DHT22;10678;51.002;4.786;2022-08-01T12:32:48;40.80;54.80
21039;DHT22;10678;51.002;4.786;2022-08-01T12:35:15;40.10;51.50
21039;DHT22;10678;51.002;4.786;2022-08-01T12:37:48;39.50;52.70
21039;DHT22;10678;51.002;4.786;2022-08-01T12:40:17;40.20;52.80
21039;DHT22;10678;51.002;4.786;2022-08-01T12:42:45;41.30;51.80
21039;DHT22;10678;51.002;4.786;2022-08-01T12:45:24;41.90;50.00
21039;DHT22;10678;51.002;4.786;2022-08-01T12:47:51;42.80;49.70
21039;DHT22;10678;51.002;4.786;2022-08-01T12:50:22;43.50;47.10
21039;DHT22;10678;51.002;4.786;2022-08-01T12:52:49;42.70;46.90
21039;DHT22;10678;51.002;4.786;2022-08-01T12:55:24;42.80;47.50
21039;DHT22;10678;51.002;4.786;2022-08-01T12:58:06;43.30;48.60
21039;DHT22;10678;51.002;4.786;2022-08-01T13:00:32;43.50;49.20
21039;DHT22;10678;51.002;4.786;2022-08-01T13:03:07;43.30;47.00
21039;DHT22;10678;51.002;4.786;2022-08-01T13:05:52;43.20;47.00
21039;DHT22;10678;51.002;4.786;2022-08-01T13:08:22;42.90;47.10
21039;DHT22;10678;51.002;4.786;2022-08-01T13:10:49;42.00;46.30
21039;DHT22;10678;51.002;4.786;2022-08-01T13:13:17;41.70;47.30
21039;DHT22;10678;51.002;4.786;2022-08-01T13:15:43;41.80;49.80
21039;DHT22;10678;51.002;4.786;2022-08-01T13:18:30;42.50;48.20
21039;DHT22;10678;51.002;4.786;2022-08-01T13:21:15;41.20;46.20
21039;DHT22;10678;51.002;4.786;2022-08-01T13:24:06;41.50;47.80
21039;DHT22;10678;51.002;4.786;2022-08-01T13:26:51;42.50;47.30
21039;DHT22;10678;51.002;4.786;2022-08-01T13:29:19;43.40;46.70
21039;DHT22;10678;51.002;4.786;2022-08-01T13:31:46;42.70;46.60
21039;DHT22;10678;51.002;4.786;2022-08-01T13:34:12;41.30;48.40
21039;DHT22;10678;51.002;4.786;2022-08-01T13:36:39;40.60;49.40
21039;DHT22;10678;51.002;4.786;2022-08-01T13:39:06;41.00;50.90
21039;DHT22;10678;51.002;4.786;2022-08-01T13:41:51;41.60;48.20
21039;DHT22;10678;51.002;4.786;2022-08-01T13:44:16;41.00;47.70
21039;DHT22;10678;51.002;4.786;2022-08-01T13:46:42;40.90;49.40
21039;DHT22;10678;51.002;4.786;2022-08-01T13:49:09;41.30;48.90
21039;DHT22;10678;51.002;4.786;2022-08-01T13:51:36;41.70;48.10
21039;DHT22;10678;51.002;4.786;2022-08-01T13:54:02;41.90;49.00
21039;DHT22;10678;51.002;4.786;2022-08-01T13:56:28;41.80;45.20
21039;DHT22;10678;51.002;4.786;2022-08-01T13:58:55;41.20;49.00
21039;DHT22;10678;51.002;4.786;2022-08-01T14:01:21;41.00;47.60
21039;DHT22;10678;51.002;4.786;2022-08-01T14:03:47;40.50;48.80
21039;DHT22;10678;51.002;4.786;2022-08-01T14:06:13;39.30;47.20
21039;DHT22;10678;51.002;4.786;2022-08-01T14:08:44;37.50;48.00
21039;DHT22;10678;51.002;4.786;2022-08-01T14:11:10;36.00;52.10
21039;DHT22;10678;51.002;4.786;2022-08-01T14:13:36;36.30;51.30
21039;DHT22;10678;51.002;4.786;2022-08-01T14:16:04;36.20;51.30
21039;DHT22;10678;51.002;4.786;2022-08-01T14:18:30;36.00;52.40
21039;DHT22;10678;51.002;4.786;2022-08-01T14:20:55;35.80;51.80
21039;DHT22;10678;51.002;4.786;2022-08-01T14:23:21;34.90;53.40
21039;DHT22;10678;51.002;4.786;2022-08-01T14:25:47;34.40;53.80
21039;DHT22;10678;51.002;4.786;2022-08-01T14:28:12;34.20;54.60
21039;DHT22;10678;51.002;4.786;2022-08-01T14:30:38;33.80;54.10
21039;DHT22;10678;51.002;4.786;2022-08-01T14:33:04;33.10;55.30
21039;DHT22;10678;51.002;4.786;2022-08-01T14:35:29;32.60;58.00
21039;DHT22;10678;51.002;4.786;2022-08-01T14:37:55;32.10;58.80
21039;DHT22;10678;51.002;4.786;2022-08-01T14:40:21;31.60;59.70
21039;DHT22;10678;51.002;4.786;2022-08-01T14:42:46;31.30;59.20
21039;DHT22;10678;51.002;4.786;2022-08-01T14:45:13;31.20;61.20
21039;DHT22;10678;51.002;4.786;2022-08-01T14:47:41;30.90;61.20
21039;DHT22;10678;51.002;4.786;2022-08-01T14:50:09;30.70;59.50
21039;DHT22;10678;51.002;4.786;2022-08-01T14:52:37;30.40;60.80
21039;DHT22;10678;51.002;4.786;2022-08-01T14:55:05;30.30;61.30
21039;DHT22;10678;51.002;4.786;2022-08-01T14:57:31;30.10;61.40
21039;DHT22;10678;51.002;4.786;2022-08-01T14:59:57;29.90;62.90
21039;DHT22;10678;51.002;4.786;2022-08-01T15:02:22;29.80;63.10
21039;DHT22;10678;51.002;4.786;2022-08-01T15:04:49;29.70;63.30
21039;DHT22;10678;51.002;4.786;2022-08-01T15:07:15;29.70;64.00
21039;DHT22;10678;51.002;4.786;2022-08-01T15:09:41;29.50;64.80
21039;DHT22;10678;51.002;4.786;2022-08-01T15:12:07;29.20;63.10
21039;DHT22;10678;51.002;4.786;2022-08-01T15:14:33;29.10;63.20
21039;DHT22;10678;51.002;4.786;2022-08-01T15:17:25;29.20;62.60
21039;DHT22;10678;51.002;4.786;2022-08-01T15:19:53;28.90;63.70
21039;DHT22;10678;51.002;4.786;2022-08-01T15:22:20;28.70;61.90
21039;DHT22;10678;51.002;4.786;2022-08-01T15:24:50;28.40;63.70
21039;DHT22;10678;51.002;4.786;2022-08-01T15:27:16;28.50;63.90
21039;DHT22;10678;51.002;4.786;2022-08-01T15:29:41;28.40;63.10
21039;DHT22;10678;51.002;4.786;2022-08-01T15:32:07;28.40;65.30
21039;DHT22;10678;51.002;4.786;2022-08-01T15:34:34;28.30;65.20
21039;DHT22;10678;51.002;4.786;2022-08-01T15:37:00;28.40;65.30
21039;DHT22;10678;51.002;4.786;2022-08-01T15:39:26;28.40;65.20
21039;DHT22;10678;51.002;4.786;2022-08-01T15:41:52;28.20;66.00
21039;DHT22;10678;51.002;4.786;2022-08-01T15:44:18;28.40;66.40
21039;DHT22;10678;51.002;4.786;2022-08-01T15:46:46;28.40;66.30
21039;DHT22;10678;51.002;4.786;2022-08-01T15:49:12;28.40;66.70
21039;DHT22;10678;51.002;4.786;2022-08-01T15:51:37;28.40;66.20
21039;DHT22;10678;51.002;4.786;2022-08-01T15:54:03;28.40;66.80
21039;DHT22;10678;51.002;4.786;2022-08-01T15:56:31;28.10;67.80
21039;DHT22;10678;51.002;4.786;2022-08-01T15:58:57;27.80;67.10
21039;DHT22;10678;51.002;4.786;2022-08-01T16:01:23;27.90;68.90
21039;DHT22;10678;51.002;4.786;2022-08-01T16:03:54;28.00;68.00
21039;DHT22;10678;51.002;4.786;2022-08-01T16:06:20;27.90;68.20
21039;DHT22;10678;51.002;4.786;2022-08-01T16:08:45;28.00;67.90
21039;DHT22;10678;51.002;4.786;2022-08-01T16:11:11;28.00;69.20
21039;DHT22;10678;51.002;4.786;2022-08-01T16:13:37;28.10;67.60